createdAt,value
2022-11-13T00:02:03.889Z,22.95
2022-11-13T00:04:32.810Z,25.25
2022-11-13T00:07:00.384Z,25.77
2022-11-13T00:09:27.915Z,24.88
2022-11-13T00:11:55.413Z,24.65
2022-11-13T00:14:22.900Z,28.85
2022-11-13T00:16:50.413Z,25.10
2022-11-13T00:19:17.998Z,19.88
2022-11-13T00:21:46.811Z,20.95
2022-11-13T00:24:14.312Z,24.42
2022-11-13T00:26:42.886Z,25.55
2022-11-13T00:29:10.381Z,22.65
2022-11-13T00:31:37.845Z,24.10
2022-11-13T00:34:20.018Z,23.10
2022-11-13T00:36:54.189Z,21.42
2022-11-13T00:39:21.637Z,24.67
2022-11-13T00:41:49.116Z,21.77
2022-11-13T00:44:16.545Z,23.52
2022-11-13T00:46:44.161Z,20.85
2022-11-13T00:49:13.068Z,23.30
2022-11-13T00:51:40.537Z,25.60
2022-11-13T00:54:09.367Z,23.40
2022-11-13T00:56:36.831Z,24.10
2022-11-13T00:59:04.318Z,25.35
2022-11-13T01:01:31.891Z,21.85
2022-11-13T01:03:59.462Z,24.35
2022-11-13T01:06:28.077Z,23.95
2022-11-13T01:08:55.723Z,20.48
2022-11-13T01:11:25.802Z,19.15
2022-11-13T01:13:53.662Z,19.33
2022-11-13T01:16:22.149Z,21.85
2022-11-13T01:18:49.877Z,18.40
2022-11-13T01:21:18.444Z,21.15
2022-11-13T01:23:45.925Z,20.10
2022-11-13T01:26:14.932Z,18.65
2022-11-13T01:28:44.200Z,21.75
2022-11-13T01:31:12.874Z,18.65
2022-11-13T01:33:40.624Z,23.20
2022-11-13T01:36:09.459Z,20.85
2022-11-13T01:38:37.628Z,21.92
2022-11-13T01:41:05.528Z,22.48
2022-11-13T01:43:33.935Z,21.60
2022-11-13T01:46:17.091Z,20.80
2022-11-13T01:48:46.357Z,19.40
2022-11-13T01:51:14.979Z,21.65
2022-11-13T01:53:44.740Z,21.20
2022-11-13T01:56:12.569Z,19.00
2022-11-13T01:58:40.792Z,18.98
2022-11-13T02:01:08.330Z,19.23
2022-11-13T02:03:37.242Z,16.05
2022-11-13T02:06:04.967Z,19.60
2022-11-13T02:08:32.605Z,17.45
2022-11-13T02:11:00.153Z,17.38
2022-11-13T02:13:27.669Z,15.60
2022-11-13T02:15:55.912Z,15.45
2022-11-13T02:18:23.792Z,15.35
2022-11-13T02:20:57.348Z,17.23
2022-11-13T02:23:29.456Z,17.60
2022-11-13T02:25:59.035Z,13.63
2022-11-13T02:28:26.940Z,14.68
2022-11-13T02:30:54.656Z,14.02
2022-11-13T02:33:25.058Z,14.88
2022-11-13T02:35:52.903Z,16.42
2022-11-13T02:38:20.517Z,12.07
2022-11-13T02:40:48.129Z,13.10
2022-11-13T02:43:17.010Z,14.80
2022-11-13T02:45:44.515Z,13.57
2022-11-13T02:48:12.020Z,13.63
2022-11-13T02:50:39.575Z,13.77
2022-11-13T02:53:07.525Z,11.38
2022-11-13T02:55:35.004Z,13.52
2022-11-13T02:58:02.504Z,14.68
2022-11-13T03:00:31.353Z,12.70
2022-11-13T03:02:58.836Z,11.20
2022-11-13T03:05:26.341Z,15.38
2022-11-13T03:07:53.799Z,10.90
2022-11-13T03:10:21.278Z,12.15
2022-11-13T03:12:48.792Z,12.05
2022-11-13T03:15:16.498Z,12.65
2022-11-13T03:17:45.336Z,13.77
2022-11-13T03:20:12.894Z,10.70
2022-11-13T03:22:40.394Z,14.45
2022-11-13T03:25:10.692Z,11.30
2022-11-13T03:27:38.743Z,14.57
2022-11-13T03:30:06.864Z,13.07
2022-11-13T03:32:34.314Z,11.90
2022-11-13T03:35:03.226Z,11.40
2022-11-13T03:37:30.706Z,11.82
2022-11-13T03:39:58.226Z,12.27
2022-11-13T03:42:25.698Z,12.15
2022-11-13T03:44:53.156Z,11.80
2022-11-13T03:47:20.613Z,12.45
2022-11-13T03:49:48.075Z,11.98
2022-11-13T03:52:16.952Z,11.70
2022-11-13T03:54:44.462Z,12.70
2022-11-13T03:57:11.967Z,14.25
2022-11-13T03:59:39.430Z,15.87
2022-11-13T04:02:06.976Z,11.30
2022-11-13T04:04:34.477Z,15.25
2022-11-13T04:07:02.051Z,14.52
2022-11-13T04:09:30.952Z,12.60
2022-11-13T04:11:58.441Z,13.35
2022-11-13T04:14:25.903Z,13.68
2022-11-13T04:16:53.381Z,13.95
2022-11-13T04:19:20.921Z,16.52
2022-11-13T04:21:48.410Z,12.77
2022-11-13T04:24:15.891Z,14.65
2022-11-13T04:26:44.738Z,14.30
2022-11-13T04:29:12.228Z,15.25
2022-11-13T04:31:39.702Z,13.60
2022-11-13T04:34:07.123Z,12.00
2022-11-13T04:36:34.925Z,12.43
2022-11-13T04:39:02.421Z,12.85
2022-11-13T04:41:59.055Z,10.57
2022-11-13T04:44:27.902Z,11.52
2022-11-13T04:46:55.719Z,12.57
2022-11-13T04:49:23.245Z,11.63
2022-11-13T04:51:50.749Z,13.73
2022-11-13T04:54:18.276Z,12.23
2022-11-13T04:56:45.780Z,14.13
2022-11-13T04:59:13.233Z,12.95
2022-11-13T05:01:42.083Z,12.27
2022-11-13T05:04:11.662Z,13.48
2022-11-13T05:06:39.329Z,12.95
2022-11-13T05:09:06.836Z,12.50
2022-11-13T05:11:34.310Z,12.50
2022-11-13T05:14:03.645Z,12.82
2022-11-13T05:16:31.582Z,12.35
2022-11-13T05:19:00.417Z,11.50
2022-11-13T05:21:27.873Z,15.00
2022-11-13T05:23:55.351Z,12.27
2022-11-13T05:26:22.890Z,15.55
2022-11-13T05:28:50.373Z,12.63
2022-11-13T05:31:17.894Z,13.30
2022-11-13T05:33:45.405Z,14.68
2022-11-13T05:36:14.967Z,14.80
2022-11-13T05:38:42.905Z,12.10
2022-11-13T05:41:11.182Z,13.80
2022-11-13T05:43:39.016Z,13.70
2022-11-13T05:46:07.704Z,15.68
2022-11-13T05:48:35.817Z,15.75
2022-11-13T05:51:03.669Z,12.70
2022-11-13T05:53:33.821Z,13.57
2022-11-13T05:56:01.858Z,12.52
2022-11-13T05:58:30.186Z,17.23
2022-11-13T06:01:06.040Z,15.38
2022-11-13T06:03:33.524Z,13.27
2022-11-13T06:06:01.062Z,14.93
2022-11-13T06:08:28.831Z,13.55
2022-11-13T06:11:01.284Z,13.98
2022-11-13T06:13:28.882Z,15.48
2022-11-13T06:16:00.837Z,12.23
2022-11-13T06:18:28.795Z,14.65
2022-11-13T06:20:56.686Z,14.48
2022-11-13T06:23:24.135Z,15.80
2022-11-13T06:25:51.653Z,16.70
2022-11-13T06:28:20.492Z,12.82
2022-11-13T06:30:47.992Z,16.25
2022-11-13T06:33:15.433Z,17.23
2022-11-13T06:35:42.926Z,19.48
2022-11-13T06:38:10.389Z,16.48
2022-11-13T06:40:38.880Z,14.57
2022-11-13T06:43:06.354Z,15.60
2022-11-13T06:45:35.185Z,20.60
2022-11-13T06:48:02.668Z,17.73
2022-11-13T06:50:30.225Z,19.48
2022-11-13T06:52:58.255Z,19.38
2022-11-13T06:55:25.776Z,24.42
2022-11-13T06:57:53.306Z,21.77
2022-11-13T07:00:21.067Z,19.02
2022-11-13T07:02:51.060Z,21.83
2022-11-13T07:05:18.632Z,20.90
2022-11-13T07:07:46.068Z,22.92
2022-11-13T07:10:13.552Z,19.95
2022-11-13T07:12:41.423Z,20.90
2022-11-13T07:15:09.117Z,22.25
2022-11-13T07:17:36.555Z,19.92
2022-11-13T07:20:05.748Z,16.85
2022-11-13T07:22:33.239Z,18.75
2022-11-13T07:25:00.780Z,17.08
2022-11-13T07:27:28.282Z,20.85
2022-11-13T07:30:00.800Z,19.90
2022-11-13T07:32:30.772Z,18.98
2022-11-13T07:34:58.242Z,18.38
2022-11-13T07:37:28.091Z,18.15
2022-11-13T07:39:55.598Z,18.17
2022-11-13T07:42:23.104Z,15.27
2022-11-13T07:44:55.078Z,19.92
2022-11-13T07:47:23.190Z,18.80
2022-11-13T07:49:50.656Z,19.17
2022-11-13T07:52:18.304Z,19.38
2022-11-13T07:54:47.147Z,18.48
2022-11-13T07:57:14.775Z,18.30
2022-11-13T07:59:42.285Z,18.90
2022-11-13T08:02:11.919Z,19.30
2022-11-13T08:04:39.400Z,17.40
2022-11-13T08:07:06.883Z,19.83
2022-11-13T08:09:34.381Z,17.20
2022-11-13T08:12:03.192Z,20.95
2022-11-13T08:14:30.653Z,17.30
2022-11-13T08:16:58.134Z,17.88
2022-11-13T08:19:25.646Z,18.38
2022-11-13T08:21:53.141Z,16.45
2022-11-13T08:24:20.596Z,16.35
2022-11-13T08:26:48.058Z,15.50
2022-11-13T08:29:16.916Z,18.00
2022-11-13T08:31:44.425Z,17.70
2022-11-13T08:34:11.946Z,16.20
2022-11-13T08:36:39.430Z,17.10
2022-11-13T08:39:06.942Z,20.40
2022-11-13T08:41:34.396Z,18.23
2022-11-13T08:44:01.854Z,15.25
2022-11-13T08:46:30.721Z,19.45
2022-11-13T08:48:58.226Z,18.65
2022-11-13T08:51:25.782Z,15.43
2022-11-13T08:53:53.284Z,15.68
2022-11-13T08:56:20.861Z,17.17
2022-11-13T08:58:48.326Z,15.57
2022-11-13T09:01:16.833Z,16.02
2022-11-13T09:03:45.801Z,16.45
2022-11-13T09:06:13.321Z,14.18
2022-11-13T09:08:40.791Z,12.43
2022-11-13T09:11:08.310Z,16.13
2022-11-13T09:13:39.934Z,15.07
2022-11-13T09:16:10.330Z,17.48
2022-11-13T09:18:37.889Z,14.60
2022-11-13T09:21:06.981Z,16.98
2022-11-13T09:23:35.605Z,16.52
2022-11-13T09:26:03.597Z,13.80
2022-11-13T09:28:31.298Z,15.90
2022-11-13T09:30:59.171Z,13.55
2022-11-13T09:33:26.618Z,11.07
2022-11-13T09:35:54.139Z,11.73
2022-11-13T09:38:22.949Z,12.45
2022-11-13T09:40:53.277Z,13.38
2022-11-13T09:43:28.346Z,10.52
2022-11-13T09:45:57.346Z,12.25
2022-11-13T09:48:29.207Z,11.02
2022-11-13T09:50:57.524Z,13.30
2022-11-13T09:53:27.422Z,11.75
2022-11-13T09:55:58.457Z,12.30
2022-11-13T09:58:29.434Z,12.98
2022-11-13T10:00:59.254Z,11.18
2022-11-13T10:04:00.777Z,12.82
2022-11-13T10:06:23.050Z,13.63
2022-11-13T10:08:54.544Z,11.60
2022-11-13T10:11:25.766Z,11.75
2022-11-13T10:13:54.249Z,10.65
2022-11-13T10:16:28.054Z,9.60
2022-11-13T10:18:56.882Z,8.77
2022-11-13T10:21:30.588Z,11.65
2022-11-13T10:24:14.364Z,11.35
2022-11-13T10:26:42.080Z,10.05
2022-11-13T10:29:11.568Z,12.63
2022-11-13T10:31:42.951Z,14.60
2022-11-13T10:34:11.943Z,10.90
2022-11-13T10:36:43.277Z,10.93
2022-11-13T10:39:12.112Z,11.40
2022-11-13T10:41:47.022Z,10.82
2022-11-13T10:44:29.474Z,11.35
2022-11-13T10:47:06.706Z,13.00
2022-11-13T10:49:34.238Z,9.98
2022-11-13T10:52:02.258Z,10.48
2022-11-13T10:54:32.034Z,10.18
2022-11-13T10:57:00.814Z,12.20
2022-11-13T10:59:38.277Z,12.13
2022-11-13T11:02:19.038Z,13.73
2022-11-13T11:04:46.770Z,11.20
2022-11-13T11:07:20.689Z,10.50
2022-11-13T11:09:51.754Z,10.70
2022-11-13T11:12:19.260Z,10.57
2022-11-13T11:14:57.543Z,11.98
2022-11-13T11:17:32.644Z,12.82
2022-11-13T11:20:02.434Z,13.38
2022-11-13T11:22:31.977Z,10.13
2022-11-13T11:25:02.757Z,9.82
2022-11-13T11:27:34.066Z,11.13
2022-11-13T11:30:04.595Z,11.27
2022-11-13T11:32:34.750Z,10.63
2022-11-13T11:35:06.161Z,10.10
2022-11-13T11:37:36.735Z,11.50
2022-11-13T11:40:07.880Z,12.75
2022-11-13T11:42:38.874Z,12.43
2022-11-13T11:45:10.401Z,11.88
2022-11-13T11:47:37.962Z,11.80
2022-11-13T11:50:06.439Z,12.52
2022-11-13T11:52:41.038Z,11.05
2022-11-13T11:55:20.119Z,11.93
2022-11-13T11:57:51.075Z,10.98
2022-11-13T12:00:19.225Z,10.07
2022-11-13T12:03:03.649Z,11.68
2022-11-13T12:05:36.917Z,13.38
2022-11-13T12:08:09.890Z,11.90
2022-11-13T12:10:43.170Z,14.38
2022-11-13T12:13:15.471Z,12.13
2022-11-13T12:15:46.838Z,11.77
2022-11-13T12:18:16.907Z,11.95
2022-11-13T12:20:47.272Z,12.50
2022-11-13T12:23:25.283Z,10.30
2022-11-13T12:25:56.389Z,11.18
2022-11-13T12:28:30.494Z,12.60
2022-11-13T12:31:02.489Z,11.38
2022-11-13T12:33:33.963Z,11.18
2022-11-13T12:36:02.052Z,13.35
2022-11-13T12:38:34.341Z,13.23
2022-11-13T12:41:06.209Z,11.32
2022-11-13T12:43:48.865Z,10.98
2022-11-13T12:46:16.838Z,9.57
2022-11-13T12:48:44.900Z,11.77
2022-11-13T12:51:13.643Z,11.00
2022-11-13T12:53:45.802Z,11.65
2022-11-13T12:56:17.424Z,12.23
2022-11-13T12:59:15.371Z,10.65
2022-11-13T13:01:44.936Z,13.00
2022-11-13T13:04:29.685Z,10.27
2022-11-13T13:07:03.033Z,10.93
2022-11-13T13:09:37.149Z,11.13
2022-11-13T13:12:08.354Z,10.40
2022-11-13T13:14:42.082Z,9.77
2022-11-13T13:17:18.446Z,12.18
2022-11-13T13:19:46.236Z,9.90
2022-11-13T13:22:25.723Z,10.85
2022-11-13T13:24:59.507Z,9.93
2022-11-13T13:27:29.539Z,9.48
2022-11-13T13:29:58.435Z,10.68
2022-11-13T13:32:28.983Z,9.13
2022-11-13T13:35:00.394Z,11.90
2022-11-13T13:37:31.369Z,11.82
2022-11-13T13:40:03.717Z,11.65
2022-11-13T13:42:39.474Z,10.85
2022-11-13T13:45:12.317Z,12.00
2022-11-13T13:47:40.997Z,10.73
2022-11-13T13:50:09.621Z,12.40
2022-11-13T13:52:37.848Z,9.85
2022-11-13T13:55:06.483Z,10.43
2022-11-13T13:57:34.307Z,11.43
2022-11-13T14:00:03.222Z,10.30
2022-11-13T14:02:30.951Z,11.68
2022-11-13T14:04:58.403Z,11.98
2022-11-13T14:07:27.676Z,11.85
2022-11-13T14:10:08.708Z,11.63
2022-11-13T14:12:36.227Z,10.95
2022-11-13T14:15:06.785Z,10.38
2022-11-13T14:17:35.443Z,11.00
2022-11-13T14:20:02.896Z,10.57
2022-11-13T14:22:30.473Z,10.68
2022-11-13T14:24:59.093Z,9.75
2022-11-13T14:27:27.598Z,10.38
2022-11-13T14:29:56.636Z,10.38
2022-11-13T14:32:26.621Z,12.18
2022-11-13T14:34:56.070Z,9.75
2022-11-13T14:37:24.981Z,11.43
2022-11-13T14:39:53.095Z,11.40
2022-11-13T14:42:22.486Z,10.60
2022-11-13T14:44:49.963Z,9.82
2022-11-13T14:47:26.197Z,9.00
2022-11-13T14:49:53.725Z,10.32
2022-11-13T14:52:21.837Z,14.13
2022-11-13T14:55:15.272Z,12.88
2022-11-13T14:57:36.868Z,10.70
2022-11-13T15:00:11.769Z,10.27
2022-11-13T15:02:40.594Z,11.68
2022-11-13T15:05:08.292Z,12.35
2022-11-13T15:07:40.738Z,12.63
2022-11-13T15:10:10.310Z,15.60
2022-11-13T15:12:37.830Z,13.63
2022-11-13T15:15:05.597Z,14.65
2022-11-13T15:17:33.250Z,13.93
2022-11-13T15:20:05.426Z,17.85
2022-11-13T15:22:36.241Z,15.02
2022-11-13T15:25:03.718Z,14.73
2022-11-13T15:27:31.372Z,15.05
2022-11-13T15:29:58.843Z,14.48
2022-11-13T15:32:28.887Z,14.60
2022-11-13T15:34:56.341Z,15.63
2022-11-13T15:37:25.200Z,14.75
2022-11-13T15:39:53.233Z,14.90
2022-11-13T15:42:27.055Z,15.13
2022-11-13T15:44:54.553Z,17.98
2022-11-13T15:47:29.164Z,18.27
2022-11-13T15:50:12.870Z,16.67
2022-11-13T15:52:43.804Z,17.75
2022-11-13T15:55:31.878Z,19.17
2022-11-13T15:57:59.597Z,17.95
2022-11-13T16:00:28.218Z,15.80
2022-11-13T16:02:56.624Z,17.45
2022-11-13T16:05:25.533Z,19.13
2022-11-13T16:07:54.708Z,16.85
2022-11-13T16:10:22.568Z,17.05
2022-11-13T16:12:50.054Z,17.17
2022-11-13T16:15:18.091Z,19.85
2022-11-13T16:17:47.255Z,20.20
2022-11-13T16:20:16.637Z,22.45
2022-11-13T16:22:44.616Z,18.15
2022-11-13T16:25:14.283Z,19.90
2022-11-13T16:27:41.797Z,17.52
2022-11-13T16:30:14.135Z,20.52
2022-11-13T16:32:41.591Z,19.45
2022-11-13T16:35:12.515Z,19.52
2022-11-13T16:37:40.062Z,22.25
2022-11-13T16:40:15.939Z,19.75
2022-11-13T16:42:43.418Z,18.63
2022-11-13T16:45:10.987Z,20.05
2022-11-13T16:47:38.441Z,21.05
2022-11-13T16:50:11.087Z,18.63
2022-11-13T16:52:38.563Z,19.40
2022-11-13T16:55:06.839Z,22.52
2022-11-13T16:57:35.766Z,21.25
2022-11-13T17:00:03.406Z,18.98
2022-11-13T17:02:30.918Z,23.85
2022-11-13T17:04:58.411Z,20.85
2022-11-13T17:07:25.976Z,24.20
2022-11-13T17:10:16.655Z,21.05
2022-11-13T17:12:43.240Z,21.02
2022-11-13T17:15:11.339Z,19.58
2022-11-13T17:17:38.821Z,21.73
2022-11-13T17:20:06.731Z,22.48
2022-11-13T17:22:34.234Z,24.35
2022-11-13T17:25:01.753Z,22.38
2022-11-13T17:27:29.240Z,22.83
2022-11-13T17:29:58.100Z,24.40
2022-11-13T17:32:25.582Z,25.10
2022-11-13T17:34:53.064Z,24.80
2022-11-13T17:37:24.913Z,25.15
2022-11-13T17:39:52.639Z,29.02
2022-11-13T17:42:20.211Z,27.08
2022-11-13T17:44:47.703Z,28.40
2022-11-13T17:47:16.625Z,26.42
2022-11-13T17:49:44.125Z,30.85
2022-11-13T17:52:11.563Z,29.88
2022-11-13T17:54:39.021Z,27.25
2022-11-13T17:57:10.022Z,32.35
2022-11-13T17:59:37.496Z,33.60
2022-11-13T18:02:05.177Z,29.50
2022-11-13T18:04:34.107Z,27.48
2022-11-13T18:07:01.597Z,27.15
2022-11-13T18:09:29.123Z,32.47
2022-11-13T18:11:56.569Z,25.70
2022-11-13T18:14:24.001Z,28.33
2022-11-13T18:16:51.486Z,29.63
2022-11-13T18:19:18.906Z,23.52
2022-11-13T18:21:47.768Z,24.88
2022-11-13T18:24:16.695Z,25.08
2022-11-13T18:26:44.293Z,28.45
2022-11-13T18:29:12.042Z,25.88
2022-11-13T18:31:39.476Z,27.60
2022-11-13T18:34:07.663Z,26.48
2022-11-13T18:36:35.788Z,26.38
2022-11-13T18:39:05.642Z,29.40
2022-11-13T18:41:33.622Z,27.83
2022-11-13T18:44:01.198Z,25.73
2022-11-13T18:46:28.705Z,27.02
2022-11-13T18:48:56.504Z,30.02
2022-11-13T18:51:25.169Z,31.05
2022-11-13T18:53:53.028Z,27.45
2022-11-13T18:56:22.935Z,26.25
2022-11-13T18:58:51.068Z,25.67
2022-11-13T19:01:22.572Z,28.95
2022-11-13T19:04:16.137Z,27.05
2022-11-13T19:06:39.111Z,24.08
2022-11-13T19:09:07.749Z,27.08
2022-11-13T19:11:36.548Z,25.13
2022-11-13T19:14:04.099Z,27.77
2022-11-13T19:16:33.190Z,24.77
2022-11-13T19:19:03.166Z,24.10
2022-11-13T19:21:31.369Z,22.80
2022-11-13T19:23:59.702Z,26.35
2022-11-13T19:26:27.186Z,22.35
2022-11-13T19:28:56.146Z,24.15
2022-11-13T19:31:25.066Z,25.60
2022-11-13T19:33:54.991Z,24.35
2022-11-13T19:36:24.661Z,23.90
2022-11-13T19:38:52.585Z,22.48
2022-11-13T19:41:20.167Z,24.75
2022-11-13T19:43:48.531Z,20.65
2022-11-13T19:46:17.984Z,24.15
2022-11-13T19:48:46.413Z,23.42
2022-11-13T19:51:14.821Z,24.92
2022-11-13T19:53:46.057Z,22.83
2022-11-13T19:58:42.990Z,27.10
2022-11-13T20:01:11.505Z,26.38
2022-11-13T20:03:40.703Z,24.05
2022-11-13T20:06:08.719Z,25.15
2022-11-13T20:08:36.350Z,23.38
2022-11-13T20:11:04.281Z,29.30
2022-11-13T20:13:32.274Z,24.08
2022-11-13T20:15:59.762Z,27.50
2022-11-13T20:18:27.412Z,28.40
2022-11-13T20:20:56.580Z,30.13
2022-11-13T20:23:24.409Z,28.92
2022-11-13T20:25:52.361Z,29.38
2022-11-13T20:28:19.901Z,38.72
2022-11-13T20:30:47.357Z,29.58
2022-11-13T20:33:19.824Z,32.63
2022-11-13T20:35:53.890Z,33.85
2022-11-13T20:38:22.816Z,34.35
2022-11-13T20:40:51.149Z,34.63
2022-11-13T20:43:18.597Z,35.92
2022-11-13T20:45:46.056Z,41.05
2022-11-13T20:48:13.543Z,35.08
2022-11-13T20:50:41.013Z,35.40
2022-11-13T20:53:08.506Z,36.80
2022-11-13T20:55:37.361Z,40.05
2022-11-13T20:58:04.809Z,37.97
2022-11-13T21:00:32.733Z,38.80
2022-11-13T21:03:00.276Z,36.80
2022-11-13T21:05:27.866Z,37.90
2022-11-13T21:07:55.362Z,37.95
2022-11-13T21:10:22.901Z,36.75
2022-11-13T21:12:51.779Z,41.38
2022-11-13T21:15:19.306Z,40.65
2022-11-13T21:17:47.073Z,39.97
2022-11-13T21:20:14.637Z,36.67
2022-11-13T21:22:42.154Z,39.17
2022-11-13T21:25:09.808Z,38.65
2022-11-13T21:27:37.311Z,38.50
2022-11-13T21:30:06.894Z,41.38
2022-11-13T21:32:34.353Z,41.65
2022-11-13T21:35:01.850Z,38.35
2022-11-13T21:37:29.345Z,38.60
2022-11-13T21:39:56.804Z,46.15
2022-11-13T21:42:24.248Z,41.72
2022-11-13T21:44:51.685Z,43.63
2022-11-13T21:47:20.521Z,44.70
2022-11-13T21:49:47.996Z,45.15
2022-11-13T21:52:15.484Z,48.10
2022-11-13T21:54:42.929Z,41.25
2022-11-13T21:57:10.429Z,42.85
2022-11-13T21:59:37.859Z,43.92
2022-11-13T22:02:05.351Z,47.85
2022-11-13T22:04:34.190Z,40.33
2022-11-13T22:07:01.768Z,45.25
2022-11-13T22:09:29.266Z,41.88
2022-11-13T22:11:56.777Z,45.05
2022-11-13T22:14:24.282Z,47.80
2022-11-13T22:16:51.753Z,49.83
2022-11-13T22:19:25.301Z,50.17
2022-11-13T22:21:56.070Z,48.40
2022-11-13T22:24:23.538Z,51.97
2022-11-13T22:26:51.028Z,53.90
2022-11-13T22:29:18.520Z,52.60
2022-11-13T22:31:46.593Z,51.65
2022-11-13T22:34:14.063Z,49.15
2022-11-13T22:36:41.526Z,54.33
2022-11-13T22:39:10.489Z,53.20
2022-11-13T22:41:37.993Z,52.92
2022-11-13T22:44:06.624Z,51.70
2022-11-13T22:46:34.849Z,58.28
2022-11-13T22:49:02.878Z,57.17
2022-11-13T22:51:31.326Z,58.42
2022-11-13T22:53:59.772Z,60.38
2022-11-13T22:56:29.176Z,61.10
2022-11-13T22:58:57.200Z,64.15
2022-11-13T23:01:25.521Z,64.82
2022-11-13T23:03:53.454Z,69.63
2022-11-13T23:06:22.831Z,68.90
2022-11-13T23:08:50.745Z,63.13
2022-11-13T23:11:19.790Z,65.50
2022-11-13T23:13:50.251Z,67.70
2022-11-13T23:16:18.136Z,63.75
2022-11-13T23:18:45.958Z,62.83
2022-11-13T23:21:14.566Z,62.63
2022-11-13T23:23:42.153Z,62.53
2022-11-13T23:26:10.293Z,66.00
2022-11-13T23:28:38.082Z,66.57
2022-11-13T23:31:07.440Z,64.18
2022-11-13T23:33:35.311Z,68.97
2022-11-13T23:36:03.046Z,66.43
2022-11-13T23:38:30.881Z,63.33
2022-11-13T23:40:59.783Z,60.53
2022-11-13T23:43:53.872Z,63.13
2022-11-13T23:46:16.583Z,58.92
2022-11-13T23:48:44.059Z,61.45
2022-11-13T23:51:11.522Z,63.45
2022-11-13T23:53:39.072Z,57.65
2022-11-13T23:56:07.009Z,64.47
2022-11-13T23:58:34.951Z,59.13
